sensor_id;sensor_type;location;lat;lon;timestamp;P1;durP1;ratioP1;P2;durP2;ratioP2
12228;SDS011;6177;52.402;9.800;2022-12-18T00:00:40;22.90;;;16.50;;
12228;SDS011;6177;52.402;9.800;2022-12-18T00:03:26;20.23;;;15.53;;
12228;SDS011;6177;52.402;9.800;2022-12-18T00:06:11;23.50;;;17.10;;
12228;SDS011;6177;52.402;9.800;2022-12-18T00:08:58;19.70;;;16.67;;
12228;SDS011;6177;52.402;9.800;2022-12-18T00:11:45;23.20;;;16.07;;
12228;SDS011;6177;52.402;9.800;2022-12-18T00:14:30;20.83;;;15.87;;
12228;SDS011;6177;52.402;9.800;2022-12-18T00:17:15;19.97;;;15.30;;
12228;SDS011;6177;52.402;9.800;2022-12-18T00:20:00;22.57;;;15.90;;
12228;SDS011;6177;52.402;9.800;2022-12-18T00:22:45;18.83;;;14.43;;
12228;SDS011;6177;52.402;9.800;2022-12-18T00:25:31;19.27;;;15.13;;
12228;SDS011;6177;52.402;9.800;2022-12-18T00:28:18;18.33;;;14.60;;
12228;SDS011;6177;52.402;9.800;2022-12-18T00:31:06;18.00;;;14.50;;
12228;SDS011;6177;52.402;9.800;2022-12-18T00:33:53;19.63;;;14.90;;
12228;SDS011;6177;52.402;9.800;2022-12-18T00:36:40;18.60;;;13.80;;
12228;SDS011;6177;52.402;9.800;2022-12-18T00:39:26;17.07;;;14.43;;
12228;SDS011;6177;52.402;9.800;2022-12-18T00:42:11;18.93;;;13.93;;
12228;SDS011;6177;52.402;9.800;2022-12-18T00:45:14;19.57;;;13.27;;
12228;SDS011;6177;52.402;9.800;2022-12-18T00:47:59;18.37;;;13.90;;
12228;SDS011;6177;52.402;9.800;2022-12-18T00:50:44;19.67;;;15.00;;
12228;SDS011;6177;52.402;9.800;2022-12-18T00:53:29;20.73;;;13.63;;
12228;SDS011;6177;52.402;9.800;2022-12-18T00:56:14;18.93;;;14.27;;
12228;SDS011;6177;52.402;9.800;2022-12-18T00:59:00;20.83;;;14.60;;
12228;SDS011;6177;52.402;9.800;2022-12-18T01:01:45;20.80;;;14.83;;
12228;SDS011;6177;52.402;9.800;2022-12-18T01:04:31;17.63;;;14.47;;
12228;SDS011;6177;52.402;9.800;2022-12-18T01:07:18;17.73;;;13.40;;
12228;SDS011;6177;52.402;9.800;2022-12-18T01:10:04;17.37;;;14.83;;
12228;SDS011;6177;52.402;9.800;2022-12-18T01:12:50;18.77;;;14.27;;
12228;SDS011;6177;52.402;9.800;2022-12-18T01:15:36;15.67;;;13.90;;
12228;SDS011;6177;52.402;9.800;2022-12-18T01:18:21;19.13;;;14.57;;
12228;SDS011;6177;52.402;9.800;2022-12-18T01:21:12;18.97;;;13.13;;
12228;SDS011;6177;52.402;9.800;2022-12-18T01:24:00;18.73;;;12.77;;
12228;SDS011;6177;52.402;9.800;2022-12-18T01:26:45;16.00;;;12.93;;
12228;SDS011;6177;52.402;9.800;2022-12-18T01:29:32;14.80;;;12.23;;
12228;SDS011;6177;52.402;9.800;2022-12-18T01:32:17;17.70;;;13.10;;
12228;SDS011;6177;52.402;9.800;2022-12-18T01:35:02;16.77;;;12.23;;
12228;SDS011;6177;52.402;9.800;2022-12-18T01:37:48;13.57;;;11.77;;
12228;SDS011;6177;52.402;9.800;2022-12-18T01:40:33;16.80;;;13.00;;
12228;SDS011;6177;52.402;9.800;2022-12-18T01:43:18;16.17;;;13.03;;
12228;SDS011;6177;52.402;9.800;2022-12-18T01:46:04;14.90;;;12.67;;
12228;SDS011;6177;52.402;9.800;2022-12-18T01:48:50;18.67;;;13.50;;
12228;SDS011;6177;52.402;9.800;2022-12-18T01:51:42;20.13;;;13.23;;
12228;SDS011;6177;52.402;9.800;2022-12-18T01:54:27;19.87;;;13.70;;
12228;SDS011;6177;52.402;9.800;2022-12-18T01:57:12;14.93;;;13.33;;
12228;SDS011;6177;52.402;9.800;2022-12-18T01:59:59;19.00;;;13.63;;
12228;SDS011;6177;52.402;9.800;2022-12-18T02:02:57;17.60;;;13.50;;
12228;SDS011;6177;52.402;9.800;2022-12-18T02:05:47;17.80;;;13.73;;
12228;SDS011;6177;52.402;9.800;2022-12-18T02:08:45;15.33;;;12.47;;
12228;SDS011;6177;52.402;9.800;2022-12-18T02:17:28;16.37;;;11.77;;
12228;SDS011;6177;52.402;9.800;2022-12-18T02:26:26;14.63;;;12.13;;
12228;SDS011;6177;52.402;9.800;2022-12-18T02:29:16;17.03;;;13.30;;
12228;SDS011;6177;52.402;9.800;2022-12-18T02:32:09;16.83;;;12.67;;
12228;SDS011;6177;52.402;9.800;2022-12-18T02:34:58;17.97;;;13.13;;
12228;SDS011;6177;52.402;9.800;2022-12-18T02:37:47;15.73;;;12.50;;
12228;SDS011;6177;52.402;9.800;2022-12-18T02:40:33;14.80;;;12.43;;
12228;SDS011;6177;52.402;9.800;2022-12-18T02:43:21;16.47;;;12.97;;
12228;SDS011;6177;52.402;9.800;2022-12-18T02:46:27;17.00;;;13.30;;
12228;SDS011;6177;52.402;9.800;2022-12-18T02:49:26;17.43;;;12.17;;
12228;SDS011;6177;52.402;9.800;2022-12-18T02:55:51;14.63;;;11.90;;
12228;SDS011;6177;52.402;9.800;2022-12-18T03:08:06;13.90;;;11.73;;
12228;SDS011;6177;52.402;9.800;2022-12-18T03:13:49;15.40;;;11.97;;
12228;SDS011;6177;52.402;9.800;2022-12-18T03:16:40;14.70;;;12.13;;
12228;SDS011;6177;52.402;9.800;2022-12-18T03:19:29;14.00;;;11.93;;
12228;SDS011;6177;52.402;9.800;2022-12-18T03:22:18;15.57;;;12.77;;
12228;SDS011;6177;52.402;9.800;2022-12-18T03:25:09;16.90;;;13.33;;
12228;SDS011;6177;52.402;9.800;2022-12-18T03:27:58;15.03;;;12.13;;
12228;SDS011;6177;52.402;9.800;2022-12-18T03:31:19;19.40;;;12.33;;
12228;SDS011;6177;52.402;9.800;2022-12-18T03:34:17;17.07;;;12.00;;
12228;SDS011;6177;52.402;9.800;2022-12-18T03:37:14;14.83;;;12.17;;
12228;SDS011;6177;52.402;9.800;2022-12-18T03:40:02;15.40;;;12.10;;
12228;SDS011;6177;52.402;9.800;2022-12-18T03:43:03;16.77;;;12.70;;
12228;SDS011;6177;52.402;9.800;2022-12-18T03:46:29;18.83;;;13.23;;
12228;SDS011;6177;52.402;9.800;2022-12-18T03:49:49;14.33;;;11.63;;
12228;SDS011;6177;52.402;9.800;2022-12-18T03:56:18;15.53;;;12.57;;
12228;SDS011;6177;52.402;9.800;2022-12-18T03:59:07;16.10;;;12.13;;
12228;SDS011;6177;52.402;9.800;2022-12-18T04:01:55;14.77;;;12.53;;
12228;SDS011;6177;52.402;9.800;2022-12-18T04:04:44;15.03;;;12.30;;
12228;SDS011;6177;52.402;9.800;2022-12-18T04:07:32;15.67;;;12.27;;
12228;SDS011;6177;52.402;9.800;2022-12-18T04:10:18;14.73;;;12.40;;
12228;SDS011;6177;52.402;9.800;2022-12-18T04:13:04;15.07;;;12.20;;
12228;SDS011;6177;52.402;9.800;2022-12-18T04:15:49;16.33;;;13.27;;
12228;SDS011;6177;52.402;9.800;2022-12-18T04:18:35;16.03;;;12.53;;
12228;SDS011;6177;52.402;9.800;2022-12-18T04:21:21;16.50;;;12.70;;
12228;SDS011;6177;52.402;9.800;2022-12-18T04:24:07;16.57;;;12.70;;
12228;SDS011;6177;52.402;9.800;2022-12-18T04:26:56;16.07;;;12.57;;
12228;SDS011;6177;52.402;9.800;2022-12-18T04:29:44;16.70;;;13.83;;
12228;SDS011;6177;52.402;9.800;2022-12-18T04:32:29;18.03;;;12.50;;
12228;SDS011;6177;52.402;9.800;2022-12-18T04:35:14;17.70;;;13.07;;
12228;SDS011;6177;52.402;9.800;2022-12-18T04:38:01;17.30;;;12.10;;
12228;SDS011;6177;52.402;9.800;2022-12-18T04:40:47;16.83;;;12.67;;
12228;SDS011;6177;52.402;9.800;2022-12-18T04:43:39;19.07;;;13.47;;
12228;SDS011;6177;52.402;9.800;2022-12-18T04:46:25;15.70;;;11.63;;
12228;SDS011;6177;52.402;9.800;2022-12-18T04:49:10;14.77;;;13.03;;
12228;SDS011;6177;52.402;9.800;2022-12-18T04:51:55;16.00;;;12.70;;
12228;SDS011;6177;52.402;9.800;2022-12-18T04:54:40;15.90;;;12.57;;
12228;SDS011;6177;52.402;9.800;2022-12-18T04:57:25;18.40;;;12.50;;
12228;SDS011;6177;52.402;9.800;2022-12-18T05:00:10;13.37;;;11.57;;
12228;SDS011;6177;52.402;9.800;2022-12-18T05:02:56;16.47;;;12.97;;
12228;SDS011;6177;52.402;9.800;2022-12-18T05:05:41;17.67;;;13.33;;
12228;SDS011;6177;52.402;9.800;2022-12-18T05:08:26;16.97;;;14.13;;
12228;SDS011;6177;52.402;9.800;2022-12-18T05:11:12;18.23;;;13.30;;
12228;SDS011;6177;52.402;9.800;2022-12-18T05:14:00;18.73;;;13.13;;
12228;SDS011;6177;52.402;9.800;2022-12-18T05:16:45;18.43;;;13.47;;
12228;SDS011;6177;52.402;9.800;2022-12-18T05:19:30;14.53;;;12.77;;
12228;SDS011;6177;52.402;9.800;2022-12-18T05:22:15;16.03;;;14.23;;
12228;SDS011;6177;52.402;9.800;2022-12-18T05:25:00;15.37;;;13.13;;
12228;SDS011;6177;52.402;9.800;2022-12-18T05:27:45;18.53;;;13.33;;
12228;SDS011;6177;52.402;9.800;2022-12-18T05:30:31;16.53;;;12.40;;
12228;SDS011;6177;52.402;9.800;2022-12-18T05:33:17;17.20;;;13.57;;
12228;SDS011;6177;52.402;9.800;2022-12-18T05:36:05;15.57;;;12.83;;
12228;SDS011;6177;52.402;9.800;2022-12-18T05:39:24;16.53;;;12.27;;
12228;SDS011;6177;52.402;9.800;2022-12-18T05:42:09;16.50;;;12.90;;
12228;SDS011;6177;52.402;9.800;2022-12-18T05:44:54;17.07;;;13.30;;
12228;SDS011;6177;52.402;9.800;2022-12-18T05:47:39;15.57;;;11.87;;
12228;SDS011;6177;52.402;9.800;2022-12-18T05:50:24;17.33;;;12.80;;
12228;SDS011;6177;52.402;9.800;2022-12-18T05:53:09;16.57;;;12.30;;
12228;SDS011;6177;52.402;9.800;2022-12-18T05:55:59;15.50;;;11.33;;
12228;SDS011;6177;52.402;9.800;2022-12-18T05:58:50;14.13;;;12.63;;
12228;SDS011;6177;52.402;9.800;2022-12-18T06:01:37;16.30;;;12.87;;
12228;SDS011;6177;52.402;9.800;2022-12-18T06:04:22;16.67;;;12.43;;
12228;SDS011;6177;52.402;9.800;2022-12-18T06:07:07;16.13;;;12.50;;
12228;SDS011;6177;52.402;9.800;2022-12-18T06:09:52;17.73;;;12.77;;
12228;SDS011;6177;52.402;9.800;2022-12-18T06:12:37;19.37;;;12.50;;
12228;SDS011;6177;52.402;9.800;2022-12-18T06:15:22;13.83;;;12.03;;
12228;SDS011;6177;52.402;9.800;2022-12-18T06:18:07;13.30;;;11.90;;
12228;SDS011;6177;52.402;9.800;2022-12-18T06:20:55;14.97;;;11.50;;
12228;SDS011;6177;52.402;9.800;2022-12-18T06:23:41;17.60;;;12.77;;
12228;SDS011;6177;52.402;9.800;2022-12-18T06:26:26;17.83;;;13.90;;
12228;SDS011;6177;52.402;9.800;2022-12-18T06:29:11;20.43;;;13.37;;
12228;SDS011;6177;52.402;9.800;2022-12-18T06:31:57;18.77;;;13.70;;
12228;SDS011;6177;52.402;9.800;2022-12-18T06:34:45;18.07;;;13.97;;
12228;SDS011;6177;52.402;9.800;2022-12-18T06:37:30;15.03;;;12.73;;
12228;SDS011;6177;52.402;9.800;2022-12-18T06:40:16;15.13;;;11.93;;
12228;SDS011;6177;52.402;9.800;2022-12-18T06:43:01;15.40;;;12.00;;
12228;SDS011;6177;52.402;9.800;2022-12-18T06:45:46;16.83;;;12.83;;
12228;SDS011;6177;52.402;9.800;2022-12-18T06:48:37;16.40;;;12.07;;
12228;SDS011;6177;52.402;9.800;2022-12-18T06:51:23;16.37;;;13.50;;
12228;SDS011;6177;52.402;9.800;2022-12-18T06:54:09;14.30;;;11.97;;
12228;SDS011;6177;52.402;9.800;2022-12-18T06:56:55;14.30;;;11.63;;
12228;SDS011;6177;52.402;9.800;2022-12-18T06:59:41;18.57;;;13.77;;
12228;SDS011;6177;52.402;9.800;2022-12-18T07:02:26;15.87;;;12.70;;
12228;SDS011;6177;52.402;9.800;2022-12-18T07:05:11;14.53;;;12.30;;
12228;SDS011;6177;52.402;9.800;2022-12-18T07:07:56;14.10;;;11.57;;
12228;SDS011;6177;52.402;9.800;2022-12-18T07:10:42;17.93;;;12.43;;
12228;SDS011;6177;52.402;9.800;2022-12-18T07:13:28;13.10;;;11.43;;
12228;SDS011;6177;52.402;9.800;2022-12-18T07:16:21;15.70;;;11.17;;
12228;SDS011;6177;52.402;9.800;2022-12-18T07:19:07;16.13;;;12.67;;
12228;SDS011;6177;52.402;9.800;2022-12-18T07:21:52;27.53;;;21.47;;
12228;SDS011;6177;52.402;9.800;2022-12-18T07:24:37;35.23;;;28.10;;
12228;SDS011;6177;52.402;9.800;2022-12-18T07:27:22;36.33;;;25.60;;
12228;SDS011;6177;52.402;9.800;2022-12-18T07:30:07;26.10;;;21.17;;
12228;SDS011;6177;52.402;9.800;2022-12-18T07:32:53;18.40;;;16.40;;
12228;SDS011;6177;52.402;9.800;2022-12-18T08:03:11;12.77;;;11.20;;
12228;SDS011;6177;52.402;9.800;2022-12-18T08:06:00;12.90;;;11.50;;
12228;SDS011;6177;52.402;9.800;2022-12-18T08:08:51;13.77;;;11.47;;
12228;SDS011;6177;52.402;9.800;2022-12-18T08:11:37;16.63;;;11.60;;
12228;SDS011;6177;52.402;9.800;2022-12-18T08:14:22;14.53;;;11.13;;
12228;SDS011;6177;52.402;9.800;2022-12-18T08:17:07;12.13;;;10.47;;
12228;SDS011;6177;52.402;9.800;2022-12-18T08:19:52;19.87;;;11.73;;
12228;SDS011;6177;52.402;9.800;2022-12-18T08:22:37;16.40;;;11.27;;
12228;SDS011;6177;52.402;9.800;2022-12-18T08:25:23;16.40;;;11.37;;
12228;SDS011;6177;52.402;9.800;2022-12-18T08:28:08;17.00;;;11.47;;
12228;SDS011;6177;52.402;9.800;2022-12-18T08:30:53;14.33;;;11.70;;
12228;SDS011;6177;52.402;9.800;2022-12-18T08:33:38;12.47;;;10.60;;
12228;SDS011;6177;52.402;9.800;2022-12-18T08:36:32;11.70;;;10.30;;
12228;SDS011;6177;52.402;9.800;2022-12-18T08:39:25;17.27;;;11.40;;
12228;SDS011;6177;52.402;9.800;2022-12-18T08:42:13;11.67;;;10.47;;
12228;SDS011;6177;52.402;9.800;2022-12-18T08:45:17;17.73;;;11.93;;
12228;SDS011;6177;52.402;9.800;2022-12-18T08:48:02;17.43;;;12.00;;
12228;SDS011;6177;52.402;9.800;2022-12-18T08:50:57;14.73;;;11.50;;
12228;SDS011;6177;52.402;9.800;2022-12-18T08:53:43;16.13;;;12.30;;
12228;SDS011;6177;52.402;9.800;2022-12-18T08:56:29;12.13;;;9.13;;
12228;SDS011;6177;52.402;9.800;2022-12-18T08:59:14;10.10;;;8.80;;
12228;SDS011;6177;52.402;9.800;2022-12-18T09:01:59;12.53;;;9.47;;
12228;SDS011;6177;52.402;9.800;2022-12-18T09:04:46;10.53;;;8.73;;
12228;SDS011;6177;52.402;9.800;2022-12-18T09:07:32;10.57;;;9.47;;
12228;SDS011;6177;52.402;9.800;2022-12-18T09:10:17;11.70;;;9.67;;
12228;SDS011;6177;52.402;9.800;2022-12-18T09:13:02;10.97;;;9.37;;
12228;SDS011;6177;52.402;9.800;2022-12-18T09:15:48;11.83;;;10.23;;
12228;SDS011;6177;52.402;9.800;2022-12-18T09:18:35;11.93;;;10.10;;
12228;SDS011;6177;52.402;9.800;2022-12-18T09:21:20;12.23;;;9.30;;
12228;SDS011;6177;52.402;9.800;2022-12-18T13:15:48;15.40;;;9.57;;
12228;SDS011;6177;52.402;9.800;2022-12-18T13:18:52;12.63;;;9.30;;
12228;SDS011;6177;52.402;9.800;2022-12-18T13:21:39;12.50;;;10.13;;
12228;SDS011;6177;52.402;9.800;2022-12-18T13:24:25;13.47;;;10.47;;
12228;SDS011;6177;52.402;9.800;2022-12-18T13:56:05;17.20;;;12.45;;
12228;SDS011;6177;52.402;9.800;2022-12-18T13:59:03;15.10;;;12.70;;
12228;SDS011;6177;52.402;9.800;2022-12-18T14:02:01;18.87;;;13.13;;
12228;SDS011;6177;52.402;9.800;2022-12-18T14:04:56;15.83;;;13.50;;
12228;SDS011;6177;52.402;9.800;2022-12-18T14:07:41;16.53;;;13.10;;
12228;SDS011;6177;52.402;9.800;2022-12-18T14:10:27;19.43;;;14.53;;
12228;SDS011;6177;52.402;9.800;2022-12-18T14:13:15;23.67;;;15.93;;
12228;SDS011;6177;52.402;9.800;2022-12-18T14:16:14;16.93;;;14.67;;
12228;SDS011;6177;52.402;9.800;2022-12-18T14:19:01;19.13;;;14.00;;
12228;SDS011;6177;52.402;9.800;2022-12-18T14:21:47;16.47;;;13.73;;
12228;SDS011;6177;52.402;9.800;2022-12-18T14:24:34;20.10;;;15.10;;
12228;SDS011;6177;52.402;9.800;2022-12-18T14:27:23;17.43;;;14.63;;
12228;SDS011;6177;52.402;9.800;2022-12-18T14:30:44;19.43;;;15.30;;
12228;SDS011;6177;52.402;9.800;2022-12-18T14:33:24;19.40;;;15.43;;
12228;SDS011;6177;52.402;9.800;2022-12-18T14:36:13;19.50;;;15.50;;
12228;SDS011;6177;52.402;9.800;2022-12-18T15:40:59;25.47;;;17.67;;
12228;SDS011;6177;52.402;9.800;2022-12-18T15:43:46;27.03;;;17.60;;
12228;SDS011;6177;52.402;9.800;2022-12-18T15:46:35;26.67;;;17.13;;
12228;SDS011;6177;52.402;9.800;2022-12-18T15:49:20;24.70;;;17.47;;
12228;SDS011;6177;52.402;9.800;2022-12-18T15:52:05;21.50;;;16.30;;
12228;SDS011;6177;52.402;9.800;2022-12-18T15:54:50;25.13;;;17.70;;
12228;SDS011;6177;52.402;9.800;2022-12-18T15:57:54;26.03;;;16.53;;
12228;SDS011;6177;52.402;9.800;2022-12-18T16:00:39;29.57;;;18.67;;
12228;SDS011;6177;52.402;9.800;2022-12-18T16:03:24;27.33;;;18.47;;
12228;SDS011;6177;52.402;9.800;2022-12-18T16:06:09;23.73;;;17.13;;
12228;SDS011;6177;52.402;9.800;2022-12-18T16:08:55;26.93;;;18.57;;
12228;SDS011;6177;52.402;9.800;2022-12-18T16:11:41;23.40;;;17.00;;
12228;SDS011;6177;52.402;9.800;2022-12-18T16:14:29;25.13;;;17.07;;
12228;SDS011;6177;52.402;9.800;2022-12-18T16:17:15;24.07;;;16.23;;
12228;SDS011;6177;52.402;9.800;2022-12-18T16:20:00;22.13;;;16.80;;
12228;SDS011;6177;52.402;9.800;2022-12-18T16:22:45;24.87;;;17.30;;
12228;SDS011;6177;52.402;9.800;2022-12-18T16:25:31;25.20;;;16.13;;
12228;SDS011;6177;52.402;9.800;2022-12-18T16:28:16;20.97;;;16.50;;
12228;SDS011;6177;52.402;9.800;2022-12-18T16:31:01;24.57;;;16.93;;
12228;SDS011;6177;52.402;9.800;2022-12-18T16:33:46;23.73;;;17.33;;
12228;SDS011;6177;52.402;9.800;2022-12-18T16:36:31;24.73;;;16.27;;
12228;SDS011;6177;52.402;9.800;2022-12-18T16:39:16;22.90;;;16.33;;
12228;SDS011;6177;52.402;9.800;2022-12-18T16:42:06;19.97;;;16.03;;
12228;SDS011;6177;52.402;9.800;2022-12-18T16:44:59;16.87;;;15.00;;
12228;SDS011;6177;52.402;9.800;2022-12-18T16:47:44;17.97;;;15.40;;
12228;SDS011;6177;52.402;9.800;2022-12-18T16:50:29;21.77;;;15.87;;
12228;SDS011;6177;52.402;9.800;2022-12-18T16:53:14;19.30;;;14.57;;
12228;SDS011;6177;52.402;9.800;2022-12-18T16:55:59;18.60;;;15.13;;
12228;SDS011;6177;52.402;9.800;2022-12-18T16:58:49;17.03;;;14.37;;
12228;SDS011;6177;52.402;9.800;2022-12-18T17:01:43;16.47;;;13.67;;
12228;SDS011;6177;52.402;9.800;2022-12-18T17:04:28;16.37;;;14.40;;
12228;SDS011;6177;52.402;9.800;2022-12-18T17:07:14;15.93;;;13.83;;
12228;SDS011;6177;52.402;9.800;2022-12-18T17:09:59;16.90;;;14.20;;
12228;SDS011;6177;52.402;9.800;2022-12-18T17:12:44;19.10;;;15.50;;
12228;SDS011;6177;52.402;9.800;2022-12-18T17:15:29;16.20;;;14.50;;
12228;SDS011;6177;52.402;9.800;2022-12-18T17:18:14;15.97;;;14.37;;
12228;SDS011;6177;52.402;9.800;2022-12-18T17:20:59;14.73;;;12.73;;
12228;SDS011;6177;52.402;9.800;2022-12-18T17:23:45;15.87;;;12.70;;
12228;SDS011;6177;52.402;9.800;2022-12-18T17:26:30;15.20;;;13.53;;
12228;SDS011;6177;52.402;9.800;2022-12-18T17:29:16;15.87;;;13.27;;
12228;SDS011;6177;52.402;9.800;2022-12-18T17:32:03;13.90;;;12.47;;
12228;SDS011;6177;52.402;9.800;2022-12-18T17:34:48;14.43;;;11.87;;
12228;SDS011;6177;52.402;9.800;2022-12-18T17:37:33;15.30;;;13.17;;
12228;SDS011;6177;52.402;9.800;2022-12-18T17:40:18;14.23;;;12.83;;
12228;SDS011;6177;52.402;9.800;2022-12-18T17:43:03;14.70;;;13.07;;
12228;SDS011;6177;52.402;9.800;2022-12-18T17:45:48;13.23;;;11.93;;
12228;SDS011;6177;52.402;9.800;2022-12-18T17:48:33;15.80;;;11.93;;
12228;SDS011;6177;52.402;9.800;2022-12-18T17:51:18;13.93;;;11.93;;
12228;SDS011;6177;52.402;9.800;2022-12-18T17:54:03;12.33;;;11.00;;
12228;SDS011;6177;52.402;9.800;2022-12-18T17:56:48;14.77;;;13.07;;
12228;SDS011;6177;52.402;9.800;2022-12-18T17:59:33;14.77;;;13.10;;
12228;SDS011;6177;52.402;9.800;2022-12-18T18:02:18;15.37;;;12.77;;
12228;SDS011;6177;52.402;9.800;2022-12-18T18:05:03;13.80;;;12.30;;
12228;SDS011;6177;52.402;9.800;2022-12-18T18:07:48;15.15;;;13.55;;
12228;SDS011;6177;52.402;9.800;2022-12-18T18:10:37;16.63;;;12.63;;
12228;SDS011;6177;52.402;9.800;2022-12-18T18:13:24;14.40;;;12.90;;
12228;SDS011;6177;52.402;9.800;2022-12-18T18:16:39;15.97;;;12.90;;
12228;SDS011;6177;52.402;9.800;2022-12-18T18:19:28;17.00;;;12.50;;
12228;SDS011;6177;52.402;9.800;2022-12-18T18:22:16;13.47;;;12.17;;
12228;SDS011;6177;52.402;9.800;2022-12-18T18:25:02;13.83;;;12.03;;
12228;SDS011;6177;52.402;9.800;2022-12-18T18:27:48;16.33;;;12.43;;
12228;SDS011;6177;52.402;9.800;2022-12-18T18:30:35;13.80;;;11.30;;
12228;SDS011;6177;52.402;9.800;2022-12-18T18:33:20;13.73;;;12.23;;
12228;SDS011;6177;52.402;9.800;2022-12-18T18:36:07;13.67;;;11.70;;
12228;SDS011;6177;52.402;9.800;2022-12-18T18:38:53;13.17;;;11.40;;
12228;SDS011;6177;52.402;9.800;2022-12-18T18:41:38;12.60;;;11.33;;
12228;SDS011;6177;52.402;9.800;2022-12-18T18:44:23;12.27;;;11.07;;
12228;SDS011;6177;52.402;9.800;2022-12-18T18:47:08;13.47;;;11.40;;
12228;SDS011;6177;52.402;9.800;2022-12-18T18:49:53;11.53;;;10.33;;
12228;SDS011;6177;52.402;9.800;2022-12-18T18:52:39;13.97;;;10.93;;
12228;SDS011;6177;52.402;9.800;2022-12-18T18:55:24;13.33;;;11.93;;
12228;SDS011;6177;52.402;9.800;2022-12-18T18:58:10;13.60;;;11.03;;
12228;SDS011;6177;52.402;9.800;2022-12-18T19:00:56;12.60;;;11.30;;
12228;SDS011;6177;52.402;9.800;2022-12-18T19:03:44;13.97;;;10.90;;
12228;SDS011;6177;52.402;9.800;2022-12-18T19:06:29;12.57;;;11.27;;
12228;SDS011;6177;52.402;9.800;2022-12-18T19:09:15;12.23;;;9.73;;
12228;SDS011;6177;52.402;9.800;2022-12-18T19:12:00;13.60;;;10.63;;
12228;SDS011;6177;52.402;9.800;2022-12-18T19:15:04;10.73;;;9.53;;
12228;SDS011;6177;52.402;9.800;2022-12-18T19:17:50;11.13;;;10.03;;
12228;SDS011;6177;52.402;9.800;2022-12-18T19:20:36;12.33;;;10.30;;
12228;SDS011;6177;52.402;9.800;2022-12-18T19:23:21;11.80;;;10.23;;
12228;SDS011;6177;52.402;9.800;2022-12-18T19:26:06;12.83;;;10.40;;
12228;SDS011;6177;52.402;9.800;2022-12-18T19:28:53;11.63;;;10.43;;
12228;SDS011;6177;52.402;9.800;2022-12-18T19:31:47;11.03;;;9.93;;
12228;SDS011;6177;52.402;9.800;2022-12-18T19:34:33;11.13;;;9.37;;
12228;SDS011;6177;52.402;9.800;2022-12-18T19:37:18;11.43;;;10.27;;
12228;SDS011;6177;52.402;9.800;2022-12-18T19:40:03;11.37;;;10.13;;
12228;SDS011;6177;52.402;9.800;2022-12-18T19:42:49;11.53;;;9.53;;
12228;SDS011;6177;52.402;9.800;2022-12-18T19:45:34;11.97;;;9.87;;
12228;SDS011;6177;52.402;9.800;2022-12-18T19:48:20;11.17;;;9.70;;
12228;SDS011;6177;52.402;9.800;2022-12-18T19:51:10;10.57;;;9.57;;
12228;SDS011;6177;52.402;9.800;2022-12-18T19:54:14;11.40;;;9.27;;
12228;SDS011;6177;52.402;9.800;2022-12-18T19:56:59;10.73;;;9.63;;
12228;SDS011;6177;52.402;9.800;2022-12-18T19:59:44;10.07;;;9.10;;
12228;SDS011;6177;52.402;9.800;2022-12-18T20:02:29;10.87;;;9.13;;
12228;SDS011;6177;52.402;9.800;2022-12-18T20:05:19;10.50;;;9.50;;
12228;SDS011;6177;52.402;9.800;2022-12-18T20:08:08;12.23;;;9.87;;
12228;SDS011;6177;52.402;9.800;2022-12-18T20:10:54;11.97;;;9.40;;
12228;SDS011;6177;52.402;9.800;2022-12-18T20:13:39;10.17;;;9.10;;
12228;SDS011;6177;52.402;9.800;2022-12-18T20:16:24;10.43;;;8.60;;
12228;SDS011;6177;52.402;9.800;2022-12-18T20:19:09;9.67;;;8.67;;
12228;SDS011;6177;52.402;9.800;2022-12-18T20:21:56;10.30;;;9.40;;
12228;SDS011;6177;52.402;9.800;2022-12-18T20:24:41;9.00;;;8.10;;
12228;SDS011;6177;52.402;9.800;2022-12-18T20:27:26;7.67;;;6.90;;
12228;SDS011;6177;52.402;9.800;2022-12-18T20:30:12;8.70;;;7.13;;
12228;SDS011;6177;52.402;9.800;2022-12-18T20:32:57;7.63;;;6.73;;
12228;SDS011;6177;52.402;9.800;2022-12-18T20:35:42;7.60;;;6.90;;
12228;SDS011;6177;52.402;9.800;2022-12-18T20:38:28;7.70;;;7.00;;
12228;SDS011;6177;52.402;9.800;2022-12-18T20:41:14;8.70;;;7.00;;
12228;SDS011;6177;52.402;9.800;2022-12-18T20:44:01;8.10;;;7.00;;
12228;SDS011;6177;52.402;9.800;2022-12-18T20:46:46;7.53;;;6.37;;
12228;SDS011;6177;52.402;9.800;2022-12-18T20:49:31;9.50;;;7.20;;
12228;SDS011;6177;52.402;9.800;2022-12-18T20:52:16;8.40;;;7.20;;
12228;SDS011;6177;52.402;9.800;2022-12-18T20:55:01;9.63;;;7.77;;
12228;SDS011;6177;52.402;9.800;2022-12-18T20:57:48;7.50;;;6.70;;
12228;SDS011;6177;52.402;9.800;2022-12-18T21:00:33;8.60;;;6.70;;
12228;SDS011;6177;52.402;9.800;2022-12-18T21:03:18;9.73;;;7.73;;
12228;SDS011;6177;52.402;9.800;2022-12-18T21:06:03;7.73;;;6.90;;
12228;SDS011;6177;52.402;9.800;2022-12-18T21:08:50;8.40;;;7.17;;
12228;SDS011;6177;52.402;9.800;2022-12-18T21:11:35;8.20;;;7.10;;
12228;SDS011;6177;52.402;9.800;2022-12-18T21:14:39;8.23;;;7.07;;
12228;SDS011;6177;52.402;9.800;2022-12-18T21:17:24;7.90;;;7.10;;
12228;SDS011;6177;52.402;9.800;2022-12-18T21:20:10;7.17;;;6.47;;
12228;SDS011;6177;52.402;9.800;2022-12-18T21:22:56;8.93;;;7.60;;
12228;SDS011;6177;52.402;9.800;2022-12-18T21:25:45;11.50;;;7.83;;
12228;SDS011;6177;52.402;9.800;2022-12-18T21:28:30;8.27;;;7.47;;
12228;SDS011;6177;52.402;9.800;2022-12-18T21:31:15;8.63;;;7.40;;
12228;SDS011;6177;52.402;9.800;2022-12-18T21:34:00;8.00;;;7.20;;
12228;SDS011;6177;52.402;9.800;2022-12-18T21:36:46;8.93;;;8.13;;
12228;SDS011;6177;52.402;9.800;2022-12-18T21:39:32;7.80;;;7.10;;
12228;SDS011;6177;52.402;9.800;2022-12-18T21:42:17;8.33;;;7.33;;
12228;SDS011;6177;52.402;9.800;2022-12-18T21:45:21;9.00;;;7.53;;
12228;SDS011;6177;52.402;9.800;2022-12-18T21:48:06;8.23;;;7.43;;
12228;SDS011;6177;52.402;9.800;2022-12-18T21:50:51;9.50;;;8.50;;
12228;SDS011;6177;52.402;9.800;2022-12-18T21:53:36;10.03;;;8.07;;
12228;SDS011;6177;52.402;9.800;2022-12-18T21:56:21;8.27;;;7.47;;
12228;SDS011;6177;52.402;9.800;2022-12-18T21:59:06;8.77;;;7.67;;
12228;SDS011;6177;52.402;9.800;2022-12-18T22:01:52;11.27;;;8.67;;
12228;SDS011;6177;52.402;9.800;2022-12-18T22:04:39;9.67;;;8.37;;
12228;SDS011;6177;52.402;9.800;2022-12-18T22:07:25;9.67;;;8.70;;
12228;SDS011;6177;52.402;9.800;2022-12-18T22:10:12;10.57;;;9.47;;
12228;SDS011;6177;52.402;9.800;2022-12-18T22:12:57;11.27;;;9.00;;
12228;SDS011;6177;52.402;9.800;2022-12-18T22:15:42;10.00;;;9.00;;
12228;SDS011;6177;52.402;9.800;2022-12-18T22:18:27;11.27;;;9.47;;
12228;SDS011;6177;52.402;9.800;2022-12-18T22:21:25;10.37;;;8.70;;
12228;SDS011;6177;52.402;9.800;2022-12-18T22:24:23;9.87;;;8.87;;
12228;SDS011;6177;52.402;9.800;2022-12-18T22:27:09;10.80;;;8.43;;
12228;SDS011;6177;52.402;9.800;2022-12-18T22:29:54;10.17;;;9.03;;
12228;SDS011;6177;52.402;9.800;2022-12-18T22:32:48;10.30;;;8.53;;
12228;SDS011;6177;52.402;9.800;2022-12-18T22:35:33;9.67;;;8.70;;
12228;SDS011;6177;52.402;9.800;2022-12-18T22:38:18;10.87;;;9.10;;
12228;SDS011;6177;52.402;9.800;2022-12-18T22:41:03;10.53;;;9.53;;
12228;SDS011;6177;52.402;9.800;2022-12-18T22:43:48;10.93;;;9.47;;
12228;SDS011;6177;52.402;9.800;2022-12-18T22:46:37;9.70;;;8.70;;
12228;SDS011;6177;52.402;9.800;2022-12-18T22:49:25;11.43;;;9.67;;
12228;SDS011;6177;52.402;9.800;2022-12-18T22:52:10;10.67;;;8.83;;
12228;SDS011;6177;52.402;9.800;2022-12-18T22:54:55;11.40;;;8.50;;
12228;SDS011;6177;52.402;9.800;2022-12-18T22:57:40;9.73;;;8.60;;
12228;SDS011;6177;52.402;9.800;2022-12-18T23:00:25;9.47;;;8.50;;